Terminal Aerodrome Forecast
Issued by NWS

Home | Current Version | Previous Version | Text Only | Print | Product List | Glossary Off
Versions: 1 2 3 4 5 6 7 8 9 10 11 12 13 14 15

292
FTUS43 KUNR 210306 AAA
TAFGCC
TAF AMD
KGCC 210306Z 2103/2124 25015G25KT P6SM BKN120
     FM210400 30025G45KT P6SM BKN080
     FM210600 30023G35KT P6SM BKN080
     FM211000 31018G28KT P6SM SCT200=

USA.gov is the U.S. government's official web portal to all federal, state and local government web resources and services.